createdAt,value
2018-07-26T00:04:11.481Z,62.87
2018-07-26T00:09:10.286Z,63.33
2018-07-26T00:14:07.822Z,62.70
2018-07-26T00:19:05.350Z,62.31
2018-07-26T00:24:02.830Z,62.38
2018-07-26T00:29:04.713Z,62.06
2018-07-26T00:34:04.781Z,62.88
2018-07-26T00:39:05.990Z,62.20
2018-07-26T00:44:04.724Z,62.93
2018-07-26T00:49:02.259Z,63.26
2018-07-26T00:53:59.796Z,63.04
2018-07-26T00:58:58.447Z,62.99
2018-07-26T01:03:55.937Z,63.60
2018-07-26T01:08:53.486Z,63.83
2018-07-26T01:13:50.961Z,63.44
2018-07-26T01:18:48.465Z,63.20
2018-07-26T01:23:45.971Z,63.01
2018-07-26T01:28:43.453Z,65.04
2018-07-26T01:33:40.975Z,63.75
2018-07-26T01:38:38.478Z,64.73
2018-07-26T01:43:48.414Z,64.15
2018-07-26T01:48:45.905Z,65.43
2018-07-26T01:53:44.190Z,65.01
2018-07-26T01:58:41.689Z,66.35
2018-07-26T02:03:39.652Z,66.95
2018-07-26T02:08:37.220Z,66.99
2018-07-26T02:13:34.703Z,66.82
2018-07-26T02:18:32.234Z,67.36
2018-07-26T02:23:29.751Z,67.90
2018-07-26T02:28:27.229Z,68.10
2018-07-26T02:33:24.706Z,68.74
2018-07-26T02:38:22.185Z,67.72
2018-07-26T02:43:19.686Z,68.86
2018-07-26T02:48:17.170Z,68.03
2018-07-26T02:53:14.782Z,69.80
2018-07-26T02:58:12.323Z,69.04
2018-07-26T03:03:09.811Z,68.63
2018-07-26T03:08:07.317Z,69.92
2018-07-26T03:13:05.003Z,70.09
2018-07-26T03:18:02.540Z,70.33
2018-07-26T03:23:00.064Z,70.13
2018-07-26T03:27:57.541Z,70.32
2018-07-26T03:32:55.039Z,70.38
2018-07-26T03:37:52.550Z,70.34
2018-07-26T03:42:50.103Z,71.35
2018-07-26T03:47:47.627Z,71.62
2018-07-26T03:52:45.223Z,71.25
2018-07-26T03:57:42.768Z,72.69
2018-07-26T04:02:40.256Z,70.77
2018-07-26T04:07:37.758Z,71.78
2018-07-26T04:12:35.282Z,70.85
2018-07-26T04:17:32.790Z,70.27
2018-07-26T04:22:30.290Z,70.72
2018-07-26T04:27:27.822Z,72.43
2018-07-26T04:32:25.330Z,71.77
2018-07-26T04:37:22.874Z,71.72
2018-07-26T04:42:20.379Z,69.16
2018-07-26T04:47:17.915Z,69.50
2018-07-26T04:52:15.414Z,69.89
2018-07-26T04:57:12.962Z,69.64
2018-07-26T05:02:10.782Z,70.56
2018-07-26T05:07:08.315Z,68.99
2018-07-26T05:12:05.883Z,69.75
2018-07-26T05:17:03.406Z,70.71
2018-07-26T05:22:00.895Z,70.04
2018-07-26T05:26:58.391Z,70.22
2018-07-26T05:31:55.941Z,69.70
2018-07-26T05:36:53.505Z,67.78
2018-07-26T05:41:51.010Z,68.13
2018-07-26T05:46:48.489Z,67.24
2018-07-26T05:51:46.019Z,66.39
2018-07-26T05:56:43.538Z,66.45
2018-07-26T06:01:41.053Z,66.42
2018-07-26T06:06:38.573Z,65.88
2018-07-26T06:11:36.077Z,65.41
2018-07-26T06:16:33.554Z,64.07
2018-07-26T06:21:31.073Z,60.98
2018-07-26T06:26:28.624Z,61.08
2018-07-26T06:31:26.180Z,59.64
2018-07-26T06:36:23.720Z,59.27
2018-07-26T06:41:21.405Z,57.22
2018-07-26T06:46:18.938Z,56.01
2018-07-26T06:51:16.413Z,57.08
2018-07-26T06:56:13.911Z,55.45
2018-07-26T07:01:11.477Z,54.16
2018-07-26T07:06:09.129Z,52.65
2018-07-26T07:11:06.624Z,52.69
2018-07-26T07:16:04.170Z,52.17
2018-07-26T07:21:01.693Z,51.55
2018-07-26T07:25:59.291Z,50.90
2018-07-26T07:30:56.779Z,49.93
2018-07-26T07:35:54.281Z,47.66
2018-07-26T07:40:51.819Z,47.58
2018-07-26T07:45:49.308Z,48.22
2018-07-26T07:50:46.831Z,46.84
2018-07-26T07:55:44.463Z,46.74
2018-07-26T08:00:41.959Z,45.85
2018-07-26T08:05:39.541Z,42.91
2018-07-26T08:10:37.074Z,46.01
2018-07-26T08:15:34.598Z,46.76
2018-07-26T08:20:32.091Z,45.79
2018-07-26T08:25:29.619Z,43.65
2018-07-26T08:30:27.161Z,43.36
2018-07-26T08:35:24.653Z,42.61
2018-07-26T08:40:22.150Z,41.66
2018-07-26T08:45:19.671Z,44.91
2018-07-26T08:50:17.187Z,40.38
2018-07-26T08:55:14.738Z,37.87
2018-07-26T09:00:15.662Z,39.70
2018-07-26T09:05:13.238Z,36.38
2018-07-26T09:10:10.753Z,36.17
2018-07-26T09:15:08.378Z,35.09
2018-07-26T09:20:06.101Z,36.71
2018-07-26T09:25:03.721Z,35.38
2018-07-26T09:30:01.227Z,34.38
2018-07-26T09:34:58.723Z,33.76
2018-07-26T09:39:56.259Z,34.05
2018-07-26T09:44:53.786Z,33.22
2018-07-26T09:49:51.377Z,31.54
2018-07-26T09:54:48.971Z,32.05
2018-07-26T09:59:47.479Z,28.82
2018-07-26T10:04:45.281Z,28.92
2018-07-26T10:09:42.771Z,29.37
2018-07-26T10:14:40.290Z,28.27
2018-07-26T10:19:37.830Z,29.54
2018-07-26T10:24:35.377Z,29.26
2018-07-26T10:29:35.532Z,29.08
2018-07-26T10:34:33.184Z,29.92
2018-07-26T10:39:30.668Z,29.20
2018-07-26T10:44:28.181Z,29.53
2018-07-26T10:49:25.725Z,29.56
2018-07-26T10:54:23.205Z,29.51
2018-07-26T10:59:22.975Z,29.70
2018-07-26T11:04:20.533Z,30.47
2018-07-26T11:09:18.051Z,31.29
2018-07-26T11:14:15.535Z,33.36
2018-07-26T11:19:13.055Z,31.57
2018-07-26T11:24:10.601Z,30.58
2018-07-26T11:29:19.527Z,29.81
2018-07-26T11:34:17.123Z,29.22
2018-07-26T11:39:14.638Z,28.62
2018-07-26T11:44:12.231Z,28.79
2018-07-26T11:49:09.758Z,27.85
2018-07-26T11:54:07.670Z,28.46
2018-07-26T11:59:08.773Z,29.44
2018-07-26T12:04:06.715Z,26.51
2018-07-26T12:09:07.400Z,26.67
2018-07-26T12:14:08.880Z,25.39
2018-07-26T12:19:06.398Z,26.67
2018-07-26T12:24:03.918Z,27.10
2018-07-26T12:29:03.055Z,26.23
2018-07-26T12:34:00.679Z,26.11
2018-07-26T12:38:58.220Z,27.08
2018-07-26T12:43:55.739Z,27.39
2018-07-26T12:48:53.262Z,26.01
2018-07-26T12:53:50.803Z,25.34
2018-07-26T12:58:48.325Z,25.44
2018-07-26T13:03:45.855Z,24.98
2018-07-26T13:08:43.366Z,25.04
2018-07-26T13:13:45.079Z,24.61
2018-07-26T13:18:45.012Z,25.49
2018-07-26T13:23:45.773Z,24.67
2018-07-26T13:28:43.382Z,24.83
2018-07-26T13:33:40.923Z,26.32
2018-07-26T13:38:38.474Z,25.25
2018-07-26T13:43:35.973Z,24.95
2018-07-26T13:48:34.321Z,25.71
2018-07-26T13:53:31.839Z,25.64
2018-07-26T13:58:31.292Z,25.40
2018-07-26T14:03:33.768Z,24.71
2018-07-26T14:08:31.384Z,26.01
2018-07-26T14:13:28.941Z,26.00
2018-07-26T14:18:26.487Z,25.72
2018-07-26T14:23:29.678Z,26.05
2018-07-26T14:28:27.184Z,25.52
2018-07-26T14:33:24.698Z,25.00
2018-07-26T14:38:22.292Z,26.21
2018-07-26T14:43:19.817Z,25.53
2018-07-26T14:48:19.917Z,24.75
2018-07-26T14:53:22.077Z,25.16
2018-07-26T14:58:21.829Z,25.05
2018-07-26T15:03:19.443Z,25.87
2018-07-26T15:08:16.979Z,25.01
2018-07-26T15:13:14.608Z,25.58
2018-07-26T15:18:12.131Z,25.28
2018-07-26T15:23:09.657Z,25.65
2018-07-26T15:28:07.201Z,26.65
2018-07-26T15:33:04.742Z,25.22
2018-07-26T15:38:02.257Z,25.40
2018-07-26T15:42:59.786Z,25.18
2018-07-26T15:47:57.291Z,25.28
2018-07-26T15:52:54.822Z,25.27
2018-07-26T15:57:52.457Z,25.54
2018-07-26T16:02:50.001Z,25.03
2018-07-26T16:07:47.551Z,24.65
2018-07-26T16:12:45.135Z,25.35
2018-07-26T16:17:42.807Z,26.52
2018-07-26T16:22:40.317Z,25.67
2018-07-26T16:27:38.065Z,25.15
2018-07-26T16:32:35.722Z,24.55
2018-07-26T16:37:33.287Z,25.08
2018-07-26T16:42:30.795Z,24.78
2018-07-26T16:47:28.287Z,23.82
2018-07-26T16:52:25.831Z,24.04
2018-07-26T16:57:23.385Z,24.40
2018-07-26T17:02:20.944Z,24.65
2018-07-26T17:07:18.489Z,23.03
2018-07-26T17:12:16.060Z,23.44
2018-07-26T17:17:13.661Z,24.78
2018-07-26T17:22:11.394Z,23.80
2018-07-26T17:27:08.946Z,24.31
2018-07-26T17:32:06.518Z,23.02
2018-07-26T17:37:04.083Z,23.35
2018-07-26T17:42:01.699Z,22.42
2018-07-26T17:46:59.236Z,22.98
2018-07-26T17:51:56.765Z,22.45
2018-07-26T17:56:56.235Z,22.98
2018-07-26T18:01:53.883Z,23.53
2018-07-26T18:06:51.403Z,23.97
2018-07-26T18:11:48.946Z,23.02
2018-07-26T18:16:46.522Z,23.46
2018-07-26T18:21:44.064Z,24.37
2018-07-26T18:26:41.640Z,23.55
2018-07-26T18:31:39.285Z,24.25
2018-07-26T18:36:36.729Z,25.81
2018-07-26T18:41:34.427Z,26.50
2018-07-26T18:46:32.192Z,26.25
2018-07-26T18:51:29.825Z,26.44
2018-07-26T18:56:27.340Z,27.65
2018-07-26T19:01:24.862Z,29.43
2018-07-26T19:06:22.430Z,29.85
2018-07-26T19:11:19.954Z,30.54
2018-07-26T19:16:17.477Z,32.64
2018-07-26T19:21:14.977Z,34.98
2018-07-26T19:26:12.476Z,35.22
2018-07-26T19:31:09.974Z,36.14
2018-07-26T19:36:07.537Z,35.77
2018-07-26T19:41:05.103Z,36.65
2018-07-26T19:46:02.638Z,37.50
2018-07-26T19:51:00.169Z,38.19
2018-07-26T19:55:57.657Z,38.36
2018-07-26T20:00:55.154Z,38.38
2018-07-26T20:05:52.663Z,37.77
2018-07-26T20:10:50.148Z,38.20
2018-07-26T20:15:47.652Z,37.98
2018-07-26T20:20:45.141Z,40.92
2018-07-26T20:25:45.391Z,40.11
2018-07-26T20:30:42.897Z,40.56
2018-07-26T20:35:40.400Z,39.79
2018-07-26T20:40:37.878Z,41.21
2018-07-26T20:45:35.873Z,40.41
2018-07-26T20:50:33.499Z,41.22
2018-07-26T20:55:31.066Z,41.04
2018-07-26T21:00:28.576Z,40.95
2018-07-26T21:05:26.113Z,42.00
2018-07-26T21:10:23.666Z,41.96
2018-07-26T21:15:21.157Z,40.40
2018-07-26T21:20:18.654Z,39.84
2018-07-26T21:25:16.126Z,41.01
2018-07-26T21:30:13.602Z,40.43
2018-07-26T21:35:11.146Z,40.41
2018-07-26T21:40:08.710Z,39.20
2018-07-26T21:45:06.639Z,39.02
2018-07-26T21:50:04.258Z,39.60
2018-07-26T21:55:01.738Z,40.32
2018-07-26T22:00:00.250Z,40.15
2018-07-26T22:04:57.762Z,40.66
2018-07-26T22:09:55.251Z,40.33
2018-07-26T22:14:52.715Z,41.62
2018-07-26T22:19:50.185Z,41.81
2018-07-26T22:24:47.656Z,43.29
2018-07-26T22:29:46.186Z,43.47
2018-07-26T22:34:43.621Z,44.27
2018-07-26T22:39:41.062Z,44.38
2018-07-26T22:44:38.510Z,45.70
2018-07-26T22:49:35.964Z,46.02
2018-07-26T22:54:33.426Z,46.46
2018-07-26T22:59:37.719Z,46.54
2018-07-26T23:04:35.179Z,46.75
2018-07-26T23:09:32.641Z,46.67
2018-07-26T23:14:30.150Z,46.51
2018-07-26T23:19:27.620Z,47.40
2018-07-26T23:24:25.069Z,47.94
2018-07-26T23:29:30.325Z,48.69
2018-07-26T23:34:27.911Z,49.17
2018-07-26T23:39:25.363Z,49.97
2018-07-26T23:44:22.815Z,49.40
2018-07-26T23:49:20.275Z,47.82
2018-07-26T23:54:17.721Z,47.82
2018-07-26T23:59:19.919Z,49.20
